Latest Coastal Weather Observations for Kowanyama

IDQ60701

Issued at 8:42 pm EST Monday 27 March 2017 (issued every 10 minutes, with the page automatically refreshed every 10 minutes)

About coastal observations | Map of coastal stations | Coastal observations for QLD | Marine services | Other Formats
Station Details ID: 029038 Name: KOWANYAMA AIRPORT Lat: -15.48 Lon: 141.75 Height: 9.6 m
Data from the previous 72 hours. | See also: Recent months at Kowanyama
Date/Time
EST
Temp
°C
Wind Pressure Rain since
9am
mm
Weather Cloud Vis
km
Sea
Height
m
Swell
Dir  Spd
kts
Gust
kts
hPa Trend Height
m
Period
s
Dir
27/08:30pm 26.2 CALM 0 0 1007.0 - 2.8 - - 10 - - - -
27/08:00pm 26.5 NW 2 4 1006.7 - 2.8 - - 10 - - - -
27/07:30pm 26.7 NW 3 5 1006.4 - 2.8 - - 10 - - - -
27/07:00pm 26.7 NW 4 4 1006.0 - 2.8 - - 10 - - - -
27/06:30pm 27.1 NNW 3 4 1006.1 - 2.8 - - 10 - - - -
27/06:00pm 27.4 NW 2 4 1006.0 - 2.8 - - 10 - - - -
27/05:30pm 27.1 W 5 6 1005.9 - 2.8 - - 10 - - - -
27/05:00pm 27.0 NW 8 11 1006.0 - 2.8 - - 10 - - - -
27/04:30pm 27.4 WSW 7 10 1006.3 - 2.8 - - 10 - - - -
27/04:00pm 26.8 NW 13 19 1005.7 - 2.8 - - 10 - - - -
27/03:30pm 26.6 NNW 6 11 1006.1 - 2.0 - - 10 - - - -
27/03:00pm 26.0 NNW 10 16 1006.0 - 1.2 Showers - 10 - - - -
27/02:30pm 27.6 NNE 7 14 1006.5 - 0.4 - - 10 - - - -
27/02:00pm 29.8 NNW 5 8 1006.1 - 0.4 - - 10 - - - -
27/01:30pm 30.1 SW 7 10 1006.7 - 0.4 - - 10 - - - -
27/01:00pm 32.1 W 7 11 1007.2 - 0.0 - - 10 - - - -
27/12:30pm 31.9 W 7 9 1007.9 - 0.0 - - 10 - - - -
27/12:00pm 33.1 WSW 6 9 1008.4 - 0.0 - - 10 - - - -
27/11:30am 31.6 WSW 7 11 1009.0 - 0.0 - - 10 - - - -
27/11:00am 32.6 WSW 5 7 1009.3 - 0.0 - - 10 - - - -
27/10:30am 32.3 SSW 4 6 1009.9 - 0.0 - - 10 - - - -
27/10:00am 31.1 WNW 4 6 1010.2 - 0.0 - - 10 - - - -
27/09:30am 30.8 NW 1 5 1010.2 - 0.0 - - 10 - - - -
27/09:00am 29.9 NW 1 4 1010.3 - 0.0 - - 10 - - - -
27/08:30am 28.6 CALM 0 0 1009.9 - 0.0 - - 10 - - - -
27/08:00am 27.6 CALM 0 0 1009.2 - 0.0 - - 10 - - - -
27/07:30am 26.3 CALM 0 0 1009.0 - 0.0 - - 10 - - - -
27/07:00am 25.5 CALM 0 0 1008.7 - 0.0 - - 10 - - - -
27/06:30am 25.4 CALM 0 0 1008.3 - 0.0 - - 10 - - - -
27/06:00am 25.6 CALM 0 0 1008.1 - 0.0 - - 10 - - - -
27/05:30am 25.7 CALM 0 0 1008.0 - 0.0 - - 10 - - - -
27/05:00am 25.6 NE 1 3 1007.9 - 0.0 - - 10 - - - -
27/04:30am 25.4 CALM 0 0 1007.7 - 0.0 - - 10 - - - -
27/04:00am 25.6 CALM 0 3 1007.9 - 0.0 - - 10 - - - -
27/03:30am 25.7 CALM 0 0 1008.0 - 0.0 - - 10 - - - -
27/03:00am 25.7 NW 1 3 1008.2 - 0.0 - - 10 - - - -
27/02:30am 26.0 N 3 5 1008.6 - 0.0 - - 10 - - - -
27/02:00am 25.8 N 3 5 1008.8 - 0.0 - - 10 - - - -
27/01:30am 25.9 CALM 0 0 1009.0 - 0.0 - - 10 - - - -
27/01:00am 25.8 NNE 3 3 1009.3 - 0.0 - - 10 - - - -
27/12:30am 26.0 CALM 0 0 1009.2 - 0.0 - - 10 - - - -
27/12:00am 26.1 CALM 0 0 1009.4 - 0.0 - - 10 - - - -
 
Date/Time
EST
Temp
°C
Wind Pressure Rain since
9am
mm
Weather Cloud Vis
km
Sea
Height
m
Swell
Dir  Spd
kts
Gust
kts
hPa Trend Height
m
Period
s
Dir
26/11:30pm 26.1 CALM 0 0 1009.5 - 0.0 - - 10 - - - -
26/11:00pm 26.2 N 1 3 1009.8 - 0.0 - - 10 - - - -
26/10:30pm 26.2 CALM 0 0 1009.7 - 0.0 - - 10 - - - -
26/10:00pm 26.5 CALM 0 0 1009.4 - 0.0 - - 10 - - - -
26/09:30pm 26.7 NW 2 4 1009.4 - 0.0 - - 10 - - - -
26/09:00pm 27.0 CALM 0 0 1009.0 - 0.0 - - 10 - - - -
26/08:30pm 27.3 W 3 3 1008.5 - 0.0 - - 10 - - - -
26/08:00pm 27.4 WNW 3 4 1008.3 - 0.0 - - 10 - - - -
26/07:30pm 27.5 W 5 6 1007.9 - 0.0 - - 10 - - - -
26/07:00pm 27.6 W 5 5 1007.7 - 0.0 - - 10 - - - -
26/06:30pm 28.0 W 5 7 1007.1 - 0.0 - - 10 - - - -
26/06:00pm 28.4 WSW 4 6 1006.8 - 0.0 - - 10 - - - -
26/05:30pm 28.8 W 5 6 1006.5 - 0.0 - - 10 - - - -
26/05:00pm 29.8 WNW 7 8 1006.2 - 0.0 - - 10 - - - -
26/04:30pm 30.9 W 7 10 1005.7 - 0.0 - - 10 - - - -
26/04:00pm 31.6 W 6 9 1005.8 - 0.0 - - 10 - - - -
26/03:30pm 32.4 N 1 4 1006.0 - 0.0 - - 10 - - - -
26/03:00pm 32.2 CALM 0 3 1006.3 - 0.0 - - 10 - - - -
26/02:30pm 32.2 ENE 1 4 1006.7 - 0.0 - - 10 - - - -
26/02:00pm 31.7 ENE 3 5 1007.1 - 0.0 - - 10 - - - -
26/01:30pm 32.1 NNE 3 5 1007.4 - 0.0 - - 10 - - - -
26/01:00pm 31.8 ENE 4 5 1008.0 - 0.0 - - 10 - - - -
26/12:30pm 32.0 NNW 4 8 1008.6 - 0.0 - - 10 - - - -
26/12:00pm 32.9 ENE 3 6 1009.1 - 0.0 - - 10 - - - -
26/11:30am 32.4 N 3 7 1009.5 - 0.0 - - 10 - - - -
26/11:00am 31.1 NE 2 7 1010.0 - 0.0 - - 10 - - - -
26/10:30am 31.5 NNE 3 6 1010.4 - 0.0 - - 10 - - - -
26/10:00am 29.8 NNW 3 6 1010.8 - 0.0 - - 10 - - - -
26/09:30am 29.0 NW 3 5 1011.1 - 0.0 - - 10 - - - -
26/09:00am 28.1 NW 4 6 1011.1 - 5.0 - - 10 - - - -
26/08:30am 27.1 N 1 4 1011.0 - 5.0 - - 10 - - - -
26/08:00am 26.4 CALM 0 0 1010.6 - 5.0 - - 10 - - - -
26/07:30am 25.9 CALM 0 0 1010.1 - 5.0 - - 10 - - - -
26/07:00am 25.3 NNE 2 3 1009.4 - 5.0 - - 10 - - - -
26/06:30am 25.2 NNE 3 4 1009.4 - 5.0 - - 10 - - - -
26/06:00am 25.4 NE 3 4 1008.8 - 5.0 - - 10 - - - -
26/05:30am 25.4 ENE 3 4 1008.6 - 5.0 - - 10 - - - -
26/05:00am 25.5 ENE 4 5 1008.2 - 5.0 - - 10 - - - -
26/04:30am 25.6 ENE 4 5 1008.2 - 5.0 - - 10 - - - -
26/04:00am 25.8 ENE 3 4 1008.3 - 5.0 - - 10 - - - -
26/03:30am 25.9 E 4 6 1008.2 - 5.0 - - 10 - - - -
26/03:00am 26.1 ENE 3 4 1008.3 - 5.0 Rain - 10 - - - -
26/02:30am 26.2 NE 3 4 1008.5 - 4.8 - - 10 - - - -
26/02:00am 26.4 NE 3 4 1008.5 - 4.8 - - 10 - - - -
26/01:30am 26.6 NE 3 4 1008.8 - 4.8 - - 10 - - - -
26/01:00am 26.6 ENE 3 4 1009.1 - 4.8 - - 10 - - - -
26/12:30am 26.5 NE 1 3 1009.4 - 4.8 - - 10 - - - -
26/12:00am 26.5 E 1 4 1009.8 - 4.8 - - 10 - - - -
 
Date/Time
EST
Temp
°C
Wind Pressure Rain since
9am
mm
Weather Cloud Vis
km
Sea
Height
m
Swell
Dir  Spd
kts
Gust
kts
hPa Trend Height
m
Period
s
Dir
25/11:30pm 26.6 CALM 0 0 1009.8 - 4.8 - - 10 - - - -
25/11:00pm 26.4 CALM 0 3 1009.8 - 4.8 - - 10 - - - -
25/10:30pm 26.3 NE 3 4 1009.7 - 4.8 - - 10 - - - -
25/10:00pm 26.4 NE 2 4 1009.2 - 4.8 - - 10 - - - -
25/09:30pm 26.3 E 3 4 1008.9 - 4.8 - - 10 - - - -
25/09:00pm 26.3 CALM 0 0 1008.7 - 4.8 - - 10 - - - -
25/08:30pm 26.4 CALM 0 2 1008.4 - 4.8 - - 10 - - - -
25/08:00pm 26.3 NE 3 5 1008.2 - 4.8 - - 10 - - - -
25/07:30pm 26.3 CALM 0 0 1007.8 - 4.8 - - 10 - - - -
25/07:00pm 26.1 WSW 2 5 1007.4 - 4.8 - - 10 - - - -
25/06:55pm 26.1 SW 4 5 1007.3 - 4.8 - - 10 - - - -
25/06:33pm 26.7 SSW 10 16 1007.2 - 1.4 - - 5 - - - -
25/06:30pm 27.1 S 10 16 1007.1 - 0.6 - - 10 - - - -
25/06:00pm 28.9 W 6 8 1006.5 - 0.4 - - 10 - - - -
25/05:30pm 29.2 WNW 6 7 1007.0 - 0.4 - - 10 - - - -
25/05:00pm 29.7 WNW 7 8 1006.3 - 0.4 - - 10 - - - -
25/04:30pm 29.7 NW 5 7 1006.2 - 0.4 - - 10 - - - -
25/04:00pm 30.3 NW 6 9 1006.0 - 0.4 - - 10 - - - -
25/03:30pm 31.0 NW 5 8 1006.1 - 0.4 - - 10 - - - -
25/03:00pm 31.0 WNW 6 8 1006.2 - 0.4 Recent precip. - 10 - - - -
25/02:30pm 32.0 WSW 6 8 1006.5 - 0.4 - - 10 - - - -
25/02:00pm 29.7 WNW 7 10 1006.8 - 0.2 - - 10 - - - -
25/01:30pm 30.4 WSW 8 12 1007.4 - 0.0 - - 10 - - - -
25/01:00pm 31.9 NW 10 13 1007.9 - 0.0 - - 10 - - - -
25/12:30pm 30.5 WNW 6 9 1008.4 - 0.0 - - 10 - - - -
25/12:00pm 30.6 W 6 8 1009.0 - 0.0 - - 10 - - - -
25/11:30am 29.7 NW 6 7 1009.7 - 0.0 - - 10 - - - -
25/11:00am 30.6 SW 4 8 1009.8 - 0.0 - - 10 - - - -
25/10:30am 30.4 N 1 4 1010.2 - 0.0 - - 10 - - - -
25/10:00am 30.2 NNE 3 6 1010.3 - 0.0 - - 10 - - - -
25/09:30am 29.8 NE 2 5 1009.9 - 0.0 - - 10 - - - -
25/09:00am 28.6 ENE 4 6 1009.7 - 4.2 - - 10 - - - -
25/08:30am 27.8 ENE 3 5 1009.8 - 4.2 - - 10 - - - -
25/08:00am 26.5 NE 3 5 1009.3 - 4.2 - - 10 - - - -
25/07:30am 25.5 ENE 3 4 1008.7 - 4.2 - - 10 - - - -
25/07:00am 24.6 E 3 5 1008.4 - 4.2 - - 10 - - - -
25/06:30am 24.7 SSE 3 5 1007.9 - 4.2 - - 10 - - - -
25/06:00am 24.6 E 3 4 1007.6 - 4.2 - - 10 - - - -
25/05:30am 24.8 S 3 4 1007.3 - 4.2 - - 10 - - - -
25/05:00am 24.7 CALM 0 0 1007.4 - 4.2 - - 10 - - - -
25/04:30am 24.5 ENE 2 4 1007.3 - 4.0 - - 10 - - - -
25/04:00am 24.6 CALM 0 0 1006.8 - 4.0 - - 10 - - - -
25/03:30am 24.6 CALM 0 0 1007.0 - 4.0 - - 10 - - - -
25/03:00am 24.8 CALM 0 0 1007.0 - 4.0 - - 10 - - - -
25/02:30am 24.7 CALM 0 0 1007.1 - 4.0 - - 10 - - - -
25/02:00am 24.7 E 4 5 1007.8 - 4.0 - - 10 - - - -
25/01:30am 24.8 E 4 5 1008.2 - 4.0 - - 10 - - - -
25/01:00am 24.8 ENE 5 6 1008.4 - 4.0 - - 10 - - - -
25/12:30am 24.7 ENE 4 6 1008.9 - 4.0 - - 10 - - - -
25/12:00am 24.9 ENE 4 7 1009.1 - 4.0 - - 10 - - - -
 
Date/Time
EST
Temp
°C
Wind Pressure Rain since
9am
mm
Weather Cloud Vis
km
Sea
Height
m
Swell
Dir  Spd
kts
Gust
kts
hPa Trend Height
m
Period
s
Dir
24/11:30pm 24.9 N 1 4 1009.1 - 4.0 - - 10 - - - -
24/11:00pm 24.7 CALM 0 4 1008.8 - 4.0 - - 10 - - - -
24/10:30pm 24.7 NE 3 4 1008.7 - 4.0 - - 10 - - - -
24/10:00pm 24.7 SE 2 4 1009.1 - 4.0 - - 10 - - - -
24/09:30pm 24.9 NNE 1 4 1009.3 - 4.0 - - 10 - - - -
24/09:00pm 24.9 N 3 5 1009.1 - 4.0 - - 10 - - - -

Other Formats:

Comma delimited format used in spreadsheet applications
http://www.bom.gov.au/fwo/IDQ60701/IDQ60701.94268.axf

JavaScript Object Notation format (JSON) in row-major order
http://www.bom.gov.au/fwo/IDQ60701/IDQ60701.94268.json